createdAt,value
2018-08-17T00:01:55.474Z,13.83
2018-08-17T00:04:26.296Z,13.13
2018-08-17T00:06:57.096Z,13.27
2018-08-17T00:09:27.823Z,13.23
2018-08-17T00:11:58.617Z,12.73
2018-08-17T00:14:29.467Z,12.33
2018-08-17T00:17:00.204Z,12.43
2018-08-17T00:19:30.953Z,14.00
2018-08-17T00:22:02.053Z,12.53
2018-08-17T00:24:32.834Z,12.73
2018-08-17T00:27:03.533Z,13.33
2018-08-17T00:29:34.238Z,13.27
2018-08-17T00:32:04.906Z,12.83
2018-08-17T00:34:35.664Z,13.97
2018-08-17T00:37:06.386Z,13.83
2018-08-17T00:39:37.101Z,14.87
2018-08-17T00:42:07.806Z,14.40
2018-08-17T00:44:38.589Z,14.27
2018-08-17T00:47:09.335Z,13.40
2018-08-17T00:49:40.038Z,13.30
2018-08-17T00:52:11.265Z,13.90
2018-08-17T00:54:41.953Z,13.70
2018-08-17T00:57:12.732Z,13.43
2018-08-17T00:59:43.435Z,14.37
2018-08-17T01:02:14.181Z,14.30
2018-08-17T01:04:44.889Z,13.20
2018-08-17T01:07:15.591Z,14.70
2018-08-17T01:09:46.298Z,13.50
2018-08-17T01:12:17.043Z,14.17
2018-08-17T01:14:47.804Z,13.53
2018-08-17T01:17:18.593Z,14.30
2018-08-17T01:19:49.395Z,14.20
2018-08-17T01:22:20.137Z,14.37
2018-08-17T01:24:50.966Z,13.43
2018-08-17T01:27:21.704Z,12.53
2018-08-17T01:29:52.423Z,14.40
2018-08-17T01:32:23.203Z,13.17
2018-08-17T01:34:53.985Z,13.37
2018-08-17T01:37:24.771Z,13.03
2018-08-17T01:39:55.572Z,12.43
2018-08-17T01:42:26.282Z,11.20
2018-08-17T01:44:56.976Z,10.93
2018-08-17T01:47:27.774Z,11.20
2018-08-17T01:49:58.464Z,11.73
2018-08-17T01:52:29.251Z,11.33
2018-08-17T01:54:59.978Z,11.30
2018-08-17T01:57:30.744Z,12.17
2018-08-17T02:00:01.426Z,11.00
2018-08-17T02:02:32.288Z,11.20
2018-08-17T02:05:03.005Z,11.57
2018-08-17T02:07:33.746Z,10.90
2018-08-17T02:10:05.634Z,11.87
2018-08-17T02:12:36.460Z,11.60
2018-08-17T02:15:07.284Z,12.27
2018-08-17T02:17:38.020Z,12.37
2018-08-17T02:20:08.774Z,13.20
2018-08-17T02:22:39.525Z,13.53
2018-08-17T02:25:10.385Z,13.53
2018-08-17T02:27:41.121Z,13.73
2018-08-17T02:30:11.876Z,14.40
2018-08-17T02:32:42.628Z,14.80
2018-08-17T02:35:13.336Z,14.73
2018-08-17T02:37:44.058Z,15.47
2018-08-17T02:40:15.571Z,15.97
2018-08-17T02:42:46.322Z,16.10
2018-08-17T02:45:17.140Z,16.47
2018-08-17T02:47:47.937Z,16.17
2018-08-17T02:50:18.753Z,16.40
2018-08-17T02:52:49.471Z,16.70
2018-08-17T02:55:20.255Z,16.90
2018-08-17T02:57:50.973Z,16.83
2018-08-17T03:00:21.765Z,17.40
2018-08-17T03:02:52.503Z,17.77
2018-08-17T03:05:23.255Z,17.53
2018-08-17T03:07:54.086Z,17.70
2018-08-17T03:10:24.816Z,18.10
2018-08-17T03:12:55.649Z,18.07
2018-08-17T03:15:26.408Z,16.77
2018-08-17T03:17:57.200Z,15.73
2018-08-17T03:20:27.912Z,15.30
2018-08-17T03:22:58.724Z,15.30
2018-08-17T03:25:29.440Z,15.90
2018-08-17T03:28:00.172Z,16.50
2018-08-17T03:30:30.943Z,15.43
2018-08-17T03:33:01.673Z,14.63
2018-08-17T03:35:32.602Z,15.00
2018-08-17T03:38:03.413Z,13.80
2018-08-17T03:40:34.152Z,12.83
2018-08-17T03:43:04.904Z,12.80
2018-08-17T03:45:35.612Z,12.30
2018-08-17T03:48:06.611Z,12.77
2018-08-17T03:50:37.459Z,10.90
2018-08-17T03:53:08.338Z,10.90
2018-08-17T03:55:39.231Z,10.87
2018-08-17T03:58:10.045Z,10.73
2018-08-17T04:00:40.884Z,10.17
2018-08-17T04:03:11.633Z,9.53
2018-08-17T04:05:42.370Z,9.93
2018-08-17T04:08:13.122Z,9.63
2018-08-17T04:10:43.902Z,9.57
2018-08-17T04:13:14.619Z,8.80
2018-08-17T04:15:45.346Z,8.80
2018-08-17T04:18:16.035Z,8.63
2018-08-17T04:20:46.781Z,8.03
2018-08-17T04:23:17.527Z,8.03
2018-08-17T04:25:48.259Z,8.27
2018-08-17T04:28:18.999Z,7.43
2018-08-17T04:30:49.660Z,7.30
2018-08-17T04:33:20.534Z,7.47
2018-08-17T04:35:51.401Z,6.90
2018-08-17T04:38:22.244Z,6.97
2018-08-17T04:40:53.294Z,7.00
2018-08-17T04:43:24.140Z,7.10
2018-08-17T04:45:54.943Z,6.53
2018-08-17T04:48:25.718Z,6.80
2018-08-17T04:50:56.526Z,6.00
2018-08-17T04:53:27.299Z,6.93
2018-08-17T04:55:58.071Z,5.70
2018-08-17T04:58:29.171Z,6.33
2018-08-17T05:00:59.961Z,5.73
2018-08-17T05:03:30.821Z,5.80
2018-08-17T05:06:01.573Z,5.87
2018-08-17T05:08:32.320Z,5.30
2018-08-17T05:11:03.036Z,5.17
2018-08-17T05:13:33.734Z,5.33
2018-08-17T05:16:04.607Z,5.10
2018-08-17T05:18:35.357Z,5.03
2018-08-17T05:21:06.149Z,5.30
2018-08-17T05:23:36.865Z,4.90
2018-08-17T05:26:07.666Z,4.53
2018-08-17T05:28:38.379Z,5.00
2018-08-17T05:31:09.247Z,4.50
2018-08-17T05:33:40.053Z,4.30
2018-08-17T05:36:10.838Z,4.37
2018-08-17T05:38:41.628Z,4.43
2018-08-17T05:41:12.319Z,4.13
2018-08-17T05:43:43.032Z,4.57
2018-08-17T05:46:13.757Z,5.23
2018-08-17T05:48:44.444Z,4.80
2018-08-17T05:51:15.213Z,5.20
2018-08-17T05:53:45.940Z,5.50
2018-08-17T05:56:16.640Z,6.10
2018-08-17T05:58:47.837Z,5.70
2018-08-17T06:01:19.036Z,6.53
2018-08-17T06:03:49.819Z,5.33
2018-08-17T06:06:20.523Z,5.43
2018-08-17T06:08:51.242Z,5.63
2018-08-17T06:11:22.124Z,6.27
2018-08-17T06:13:52.683Z,6.07
2018-08-17T06:16:23.344Z,6.77
2018-08-17T06:18:54.163Z,6.03
2018-08-17T06:21:24.815Z,5.57
2018-08-17T06:23:55.698Z,6.23
2018-08-17T06:26:26.495Z,6.60
2018-08-17T06:28:57.235Z,6.57
2018-08-17T06:31:28.003Z,7.07
2018-08-17T06:33:58.701Z,7.57
2018-08-17T06:36:29.431Z,7.53
2018-08-17T06:39:00.164Z,7.50
2018-08-17T06:41:30.884Z,6.10
2018-08-17T06:44:01.594Z,8.10
2018-08-17T06:46:32.432Z,7.60
2018-08-17T06:49:03.135Z,7.40
2018-08-17T06:51:33.868Z,7.73
2018-08-17T06:54:04.592Z,7.43
2018-08-17T06:56:35.276Z,6.10
2018-08-17T06:59:06.388Z,5.90
2018-08-17T07:01:37.068Z,5.73
2018-08-17T07:04:08.130Z,5.60
2018-08-17T07:06:38.852Z,6.13
2018-08-17T07:09:10.898Z,5.00
2018-08-17T07:11:42.459Z,4.60
2018-08-17T07:14:13.176Z,3.90
2018-08-17T07:16:43.904Z,4.30
2018-08-17T07:19:14.623Z,3.70
2018-08-17T07:21:45.262Z,3.67
2018-08-17T07:24:16.005Z,3.90
2018-08-17T07:26:46.715Z,4.67
2018-08-17T07:29:17.380Z,4.93
2018-08-17T07:31:48.093Z,5.30
2018-08-17T07:34:18.993Z,5.50
2018-08-17T07:36:49.713Z,5.33
2018-08-17T07:39:20.393Z,5.67
2018-08-17T07:41:51.184Z,6.57
2018-08-17T07:44:21.974Z,6.67
2018-08-17T07:46:52.713Z,6.57
2018-08-17T07:49:23.468Z,5.73
2018-08-17T07:51:54.076Z,5.60
2018-08-17T07:54:24.964Z,5.37
2018-08-17T07:56:55.677Z,5.47
2018-08-17T07:59:26.897Z,5.23
2018-08-17T08:01:57.656Z,4.73
2018-08-17T08:04:28.500Z,4.60
2018-08-17T08:06:59.300Z,4.73
2018-08-17T08:09:30.053Z,4.13
2018-08-17T08:12:00.846Z,4.40
2018-08-17T08:14:31.559Z,4.37
2018-08-17T08:17:02.245Z,4.67
2018-08-17T08:19:32.988Z,4.60
2018-08-17T08:22:04.630Z,4.90
2018-08-17T08:24:39.508Z,4.70
2018-08-17T08:27:10.172Z,5.03
2018-08-17T08:29:40.851Z,5.43
2018-08-17T08:32:11.618Z,5.27
2018-08-17T08:34:42.510Z,5.23
2018-08-17T08:37:13.281Z,5.03
2018-08-17T08:39:43.952Z,5.20
2018-08-17T08:42:14.780Z,4.87
2018-08-17T08:44:45.488Z,4.90
2018-08-17T08:47:16.163Z,5.10
2018-08-17T08:49:46.875Z,4.53
2018-08-17T08:52:17.660Z,5.73
2018-08-17T08:54:48.583Z,4.73
2018-08-17T08:57:19.312Z,4.80
2018-08-17T08:59:49.943Z,4.33
2018-08-17T09:02:20.746Z,5.50
2018-08-17T09:04:51.487Z,5.77
2018-08-17T09:07:22.294Z,5.17
2018-08-17T09:09:52.969Z,5.50
2018-08-17T09:12:23.808Z,5.20
2018-08-17T09:14:54.479Z,5.23
2018-08-17T09:17:28.764Z,5.60
2018-08-17T09:19:59.441Z,6.10
2018-08-17T09:22:30.075Z,5.93
2018-08-17T09:25:00.781Z,6.33
2018-08-17T09:27:31.412Z,5.97
2018-08-17T09:30:02.293Z,5.20
2018-08-17T09:32:33.087Z,6.03
2018-08-17T09:35:03.909Z,5.93
2018-08-17T09:37:34.584Z,5.80
2018-08-17T09:40:06.090Z,5.80
2018-08-17T09:42:36.812Z,5.27
2018-08-17T09:45:10.064Z,6.20
2018-08-17T09:47:40.718Z,5.40
2018-08-17T09:50:13.499Z,5.93
2018-08-17T09:52:44.279Z,6.13
2018-08-17T09:55:14.983Z,6.17
2018-08-17T09:57:45.593Z,5.70
2018-08-17T10:00:16.358Z,6.00
2018-08-17T10:03:50.961Z,5.43
2018-08-17T10:06:26.848Z,6.60
2018-08-17T10:10:06.690Z,5.80
2018-08-17T10:12:37.350Z,5.60
2018-08-17T10:15:08.277Z,6.00
2018-08-17T10:17:39.000Z,5.33
2018-08-17T10:20:18.115Z,6.03
2018-08-17T10:22:48.774Z,5.50
2018-08-17T10:25:22.671Z,5.97
2018-08-17T10:27:54.649Z,5.50
2018-08-17T10:30:25.725Z,5.93
2018-08-17T10:32:59.288Z,5.70
2018-08-17T10:35:36.685Z,5.30
2018-08-17T10:38:08.246Z,6.00
2018-08-17T10:40:41.825Z,5.83
2018-08-17T10:43:12.576Z,5.97
2018-08-17T10:45:43.270Z,6.33
2018-08-17T10:48:14.043Z,6.10
2018-08-17T10:50:44.703Z,6.67
2018-08-17T10:53:15.353Z,7.80
2018-08-17T10:55:49.224Z,7.27
2018-08-17T10:58:19.926Z,7.77
2018-08-17T11:00:50.551Z,8.17
2018-08-17T11:03:21.201Z,8.03
2018-08-17T11:05:51.944Z,8.33
2018-08-17T11:08:22.614Z,9.20
2018-08-17T11:10:53.310Z,10.60
2018-08-17T11:13:24.007Z,11.17
2018-08-17T11:15:54.701Z,11.80
2018-08-17T11:18:25.393Z,11.33
2018-08-17T11:20:56.588Z,12.00
2018-08-17T11:23:27.332Z,12.90
2018-08-17T11:25:58.003Z,12.77
2018-08-17T11:28:28.625Z,12.50
2018-08-17T11:30:59.316Z,13.17
2018-08-17T11:33:30.458Z,15.90
2018-08-17T11:36:01.172Z,16.40
2018-08-17T11:38:31.817Z,16.43
2018-08-17T11:41:02.525Z,16.10
2018-08-17T11:43:33.168Z,16.47
2018-08-17T11:46:03.823Z,16.20
2018-08-17T11:48:35.463Z,15.67
2018-08-17T11:51:06.275Z,15.90
2018-08-17T11:53:37.068Z,13.60
2018-08-17T11:56:07.716Z,13.23
2018-08-17T11:58:38.398Z,13.97
2018-08-17T12:01:14.490Z,14.80
2018-08-17T12:03:45.147Z,14.10
2018-08-17T12:06:15.836Z,13.90
2018-08-17T12:08:46.508Z,11.00
2018-08-17T12:11:18.343Z,7.07
2018-08-17T12:13:49.012Z,6.13
2018-08-17T12:16:19.748Z,6.03
2018-08-17T12:18:50.450Z,6.50
2018-08-17T12:21:21.175Z,7.53
2018-08-17T12:23:51.859Z,7.93
2018-08-17T12:26:22.539Z,9.00
2018-08-17T12:28:53.168Z,7.83
2018-08-17T12:31:23.839Z,8.73
2018-08-17T12:33:54.688Z,9.63
2018-08-17T12:36:25.353Z,9.30
2018-08-17T12:38:55.982Z,9.73
2018-08-17T12:41:26.725Z,9.53
2018-08-17T12:43:57.312Z,8.60
2018-08-17T12:46:28.020Z,7.70
2018-08-17T12:48:58.748Z,8.27
2018-08-17T12:51:29.400Z,7.53
2018-08-17T12:54:00.087Z,6.57
2018-08-17T12:56:30.713Z,6.83
2018-08-17T12:59:01.357Z,6.70
2018-08-17T13:01:31.998Z,7.10
2018-08-17T13:04:02.624Z,6.40
2018-08-17T13:06:33.324Z,7.20
2018-08-17T13:09:04.761Z,8.63
2018-08-17T13:11:37.674Z,7.53
2018-08-17T13:14:12.038Z,7.87
2018-08-17T13:16:43.603Z,7.37
2018-08-17T13:19:14.336Z,10.00
2018-08-17T13:21:45.014Z,11.20
2018-08-17T13:24:15.737Z,9.70
2018-08-17T13:26:46.793Z,9.87
2018-08-17T13:29:17.511Z,8.60
2018-08-17T13:31:48.210Z,8.03
2018-08-17T13:34:18.877Z,7.77
2018-08-17T13:36:49.598Z,6.83
2018-08-17T13:39:20.262Z,6.30
2018-08-17T13:41:50.990Z,6.17
2018-08-17T13:44:21.681Z,6.10
2018-08-17T13:46:52.402Z,5.70
2018-08-17T13:49:23.011Z,5.43
2018-08-17T13:51:53.627Z,5.30
2018-08-17T13:54:24.358Z,4.60
2018-08-17T13:56:57.408Z,4.20
2018-08-17T13:59:28.051Z,3.70
2018-08-17T14:01:58.804Z,3.57
2018-08-17T14:04:29.467Z,3.67
2018-08-17T14:07:00.175Z,3.67
2018-08-17T14:09:30.789Z,3.07
2018-08-17T14:12:01.484Z,3.47
2018-08-17T14:14:32.121Z,4.03
2018-08-17T14:17:02.867Z,4.87
2018-08-17T14:19:33.549Z,5.50
2018-08-17T14:22:04.430Z,5.40
2018-08-17T14:24:35.146Z,4.90
2018-08-17T14:27:05.947Z,6.10
2018-08-17T14:29:36.572Z,4.80
2018-08-17T14:32:08.379Z,6.70
2018-08-17T14:34:39.015Z,4.07
2018-08-17T14:37:09.779Z,4.60
2018-08-17T14:39:40.518Z,3.27
2018-08-17T14:42:11.181Z,3.20
2018-08-17T14:44:41.847Z,3.07
2018-08-17T14:47:12.588Z,3.27
2018-08-17T14:49:43.218Z,2.97
2018-08-17T14:52:13.950Z,2.53
2018-08-17T14:54:44.624Z,2.60
2018-08-17T14:57:15.266Z,2.80
2018-08-17T14:59:45.936Z,3.97
2018-08-17T15:02:16.594Z,5.10
2018-08-17T15:04:47.422Z,3.40
2018-08-17T15:07:18.036Z,3.57
2018-08-17T15:09:48.723Z,2.90
2018-08-17T15:12:19.412Z,2.80
2018-08-17T15:14:50.109Z,2.80
2018-08-17T15:17:20.770Z,2.90
2018-08-17T15:19:51.491Z,3.37
2018-08-17T15:22:22.207Z,3.30
2018-08-17T15:24:52.943Z,3.90
2018-08-17T15:27:23.621Z,4.50
2018-08-17T15:29:54.302Z,3.77
2018-08-17T15:32:24.950Z,3.23
2018-08-17T15:34:55.788Z,2.83
2018-08-17T15:37:26.537Z,3.10
2018-08-17T15:39:57.204Z,2.70
2018-08-17T15:42:27.891Z,2.90
2018-08-17T15:44:59.421Z,3.47
2018-08-17T15:47:34.024Z,3.10
2018-08-17T15:50:17.300Z,3.00
2018-08-17T15:52:48.055Z,3.80
2018-08-17T15:55:18.903Z,3.67
2018-08-17T15:57:49.593Z,3.70
2018-08-17T16:00:20.858Z,6.53
2018-08-17T16:02:51.581Z,3.70
2018-08-17T16:05:22.462Z,3.23
2018-08-17T16:07:53.297Z,3.20
2018-08-17T16:10:24.107Z,3.00
2018-08-17T16:12:55.009Z,2.87
2018-08-17T16:15:25.733Z,2.30
2018-08-17T16:17:56.548Z,1.93
2018-08-17T16:20:27.237Z,2.20
2018-08-17T16:22:58.023Z,2.27
2018-08-17T16:25:28.676Z,2.20
2018-08-17T16:27:59.416Z,1.90
2018-08-17T16:30:30.169Z,1.80
2018-08-17T16:33:00.847Z,1.80
2018-08-17T16:35:31.598Z,1.70
2018-08-17T16:38:02.389Z,1.93
2018-08-17T16:40:39.235Z,1.83
2018-08-17T16:43:10.038Z,2.00
2018-08-17T16:45:40.732Z,1.70
2018-08-17T16:48:11.760Z,1.80
2018-08-17T16:50:42.518Z,2.03
2018-08-17T16:53:13.216Z,1.67
2018-08-17T16:55:44.005Z,1.40
2018-08-17T16:58:14.623Z,1.30
2018-08-17T17:00:45.319Z,1.60
2018-08-17T17:03:16.063Z,1.80
2018-08-17T17:05:46.754Z,2.00
2018-08-17T17:08:17.346Z,1.77
2018-08-17T17:10:48.023Z,1.50
2018-08-17T17:13:18.722Z,1.40
2018-08-17T17:15:49.422Z,1.53
2018-08-17T17:18:20.080Z,1.77
2018-08-17T17:20:50.831Z,1.30
2018-08-17T17:23:21.492Z,1.40
2018-08-17T17:25:52.230Z,1.43
2018-08-17T17:28:23.040Z,1.30
2018-08-17T17:30:54.308Z,1.67
2018-08-17T17:36:25.940Z,1.40
2018-08-17T17:39:04.075Z,1.30
2018-08-17T17:41:35.342Z,1.37
2018-08-17T17:44:06.151Z,1.87
2018-08-17T17:46:37.228Z,1.40
2018-08-17T17:49:07.982Z,1.67
2018-08-17T17:51:38.724Z,1.63
2018-08-17T17:54:09.607Z,1.67
2018-08-17T17:56:40.282Z,1.43
2018-08-17T17:59:14.906Z,1.47
2018-08-17T18:01:45.536Z,1.83
2018-08-17T18:04:16.243Z,1.73
2018-08-17T18:06:46.934Z,1.73
2018-08-17T18:09:17.638Z,1.33
2018-08-17T18:11:48.347Z,1.50
2018-08-17T18:14:19.205Z,1.60
2018-08-17T18:16:49.997Z,1.77
2018-08-17T18:19:20.709Z,1.73
2018-08-17T18:21:51.508Z,1.60
2018-08-17T18:24:22.149Z,1.50
2018-08-17T18:26:52.911Z,1.40
2018-08-17T18:29:23.568Z,1.70
2018-08-17T18:31:54.279Z,1.30
2018-08-17T18:34:25.079Z,1.67
2018-08-17T18:36:55.779Z,1.40
2018-08-17T18:39:26.523Z,1.70
2018-08-17T18:41:57.543Z,1.80
2018-08-17T18:44:28.246Z,2.00
2018-08-17T18:46:59.028Z,1.87
2018-08-17T18:49:29.832Z,1.77
2018-08-17T18:52:00.600Z,2.63
2018-08-17T18:54:31.315Z,2.90
2018-08-17T18:57:02.083Z,2.50
2018-08-17T18:59:32.859Z,1.80
2018-08-17T19:02:03.695Z,1.70
2018-08-17T19:04:34.456Z,1.50
2018-08-17T19:07:05.307Z,1.53
2018-08-17T19:09:35.965Z,1.60
2018-08-17T19:12:06.749Z,1.87
2018-08-17T19:14:44.292Z,1.37
2018-08-17T19:17:20.305Z,1.70
2018-08-17T19:19:51.939Z,1.60
2018-08-17T19:22:22.926Z,1.70
2018-08-17T19:24:54.054Z,1.77
2018-08-17T19:27:31.707Z,1.60
2018-08-17T19:30:03.204Z,2.10
2018-08-17T19:32:33.875Z,2.13
2018-08-17T19:35:04.695Z,1.77
2018-08-17T19:37:39.482Z,1.60
2018-08-17T19:40:10.852Z,1.73
2018-08-17T19:42:42.210Z,1.77
2018-08-17T19:45:12.993Z,2.10
2018-08-17T19:47:44.416Z,2.87
2018-08-17T19:50:15.948Z,2.07
2018-08-17T19:52:46.692Z,2.17
2018-08-17T19:55:17.645Z,2.67
2018-08-17T19:57:48.484Z,2.40
2018-08-17T20:00:19.680Z,2.33
2018-08-17T20:02:50.740Z,2.30
2018-08-17T20:05:21.562Z,2.33
2018-08-17T20:07:54.042Z,2.17
2018-08-17T20:10:24.786Z,2.00
2018-08-17T20:12:55.614Z,2.30
2018-08-17T20:15:27.170Z,1.90
2018-08-17T20:17:58.063Z,2.00
2018-08-17T20:20:28.840Z,2.40
2018-08-17T20:23:01.963Z,2.07
2018-08-17T20:25:32.752Z,2.10
2018-08-17T20:28:03.567Z,2.33
2018-08-17T20:30:34.331Z,2.20
2018-08-17T20:33:12.405Z,2.70
2018-08-17T20:35:43.164Z,1.90
2018-08-17T20:38:13.897Z,2.50
2018-08-17T20:40:44.629Z,2.23
2018-08-17T20:43:16.542Z,2.10
2018-08-17T20:45:47.397Z,2.30
2018-08-17T20:48:18.131Z,2.90
2018-08-17T20:50:49.723Z,2.30
2018-08-17T20:53:21.480Z,2.70
2018-08-17T20:55:52.315Z,2.80
2018-08-17T20:58:23.013Z,2.50
2018-08-17T21:00:53.844Z,2.57
2018-08-17T21:03:24.517Z,2.40
2018-08-17T21:05:55.284Z,2.20
2018-08-17T21:08:26.000Z,2.30
2018-08-17T21:10:56.763Z,2.40
2018-08-17T21:13:27.484Z,2.47
2018-08-17T21:15:58.270Z,2.53
2018-08-17T21:18:29.052Z,3.23
2018-08-17T21:20:59.904Z,3.07
2018-08-17T21:23:30.685Z,5.30
2018-08-17T21:26:01.463Z,4.30
2018-08-17T21:28:32.663Z,3.23
2018-08-17T21:31:03.443Z,3.53
2018-08-17T21:33:34.224Z,8.13
2018-08-17T21:36:04.912Z,5.20
2018-08-17T21:41:37.085Z,3.37
2018-08-17T21:44:10.925Z,3.50
2018-08-17T21:46:52.397Z,4.13
2018-08-17T21:49:26.269Z,3.70
2018-08-17T21:52:03.482Z,3.60
2018-08-17T21:54:34.981Z,3.47
2018-08-17T21:57:05.941Z,3.53
2018-08-17T21:59:41.706Z,3.37
2018-08-17T22:02:12.757Z,3.30
2018-08-17T22:04:43.495Z,3.80
2018-08-17T22:07:21.583Z,3.60
2018-08-17T22:09:53.285Z,4.60
2018-08-17T22:12:24.041Z,4.67
2018-08-17T22:14:55.307Z,4.27
2018-08-17T22:17:35.737Z,5.00
2018-08-17T22:20:09.261Z,5.03
2018-08-17T22:22:40.105Z,4.57
2018-08-17T22:25:16.230Z,4.30
2018-08-17T22:27:49.516Z,5.27
2018-08-17T22:30:23.734Z,4.40
2018-08-17T22:32:54.611Z,4.33
2018-08-17T22:35:25.467Z,4.40
2018-08-17T22:37:56.933Z,4.50
2018-08-17T22:40:28.310Z,3.97
2018-08-17T22:42:59.622Z,3.80
2018-08-17T22:45:30.415Z,4.40
2018-08-17T22:48:01.198Z,4.20
2018-08-17T22:50:31.961Z,4.40
2018-08-17T22:53:03.176Z,3.70
2018-08-17T22:55:33.929Z,4.53
2018-08-17T22:58:04.729Z,4.83
2018-08-17T23:00:35.461Z,3.80
2018-08-17T23:03:06.220Z,4.00
2018-08-17T23:05:37.340Z,4.00
2018-08-17T23:08:08.147Z,3.83
2018-08-17T23:10:38.896Z,4.00
2018-08-17T23:13:09.580Z,4.10
2018-08-17T23:15:40.320Z,4.70
2018-08-17T23:18:11.164Z,4.13
2018-08-17T23:20:41.902Z,4.37
2018-08-17T23:23:12.719Z,3.93
2018-08-17T23:25:43.465Z,4.40
2018-08-17T23:28:14.183Z,4.17
2018-08-17T23:30:45.012Z,4.07
2018-08-17T23:33:15.848Z,3.77
2018-08-17T23:35:46.585Z,4.10
2018-08-17T23:38:17.407Z,4.23
2018-08-17T23:40:48.220Z,4.43
2018-08-17T23:43:18.992Z,4.00
2018-08-17T23:45:49.650Z,4.20
2018-08-17T23:48:20.307Z,3.63
2018-08-17T23:50:51.053Z,4.37
2018-08-17T23:53:22.084Z,4.27
2018-08-17T23:55:52.858Z,4.50
2018-08-17T23:58:23.512Z,4.10
